createdAt,value
2022-10-18T00:00:33.831Z,5.10
2022-10-18T00:03:25.779Z,4.60
2022-10-18T00:05:58.204Z,4.60
2022-10-18T00:08:30.505Z,4.60
2022-10-18T00:11:02.454Z,4.40
2022-10-18T00:13:35.062Z,4.40
2022-10-18T00:16:12.260Z,4.80
2022-10-18T00:18:48.045Z,5.00
2022-10-18T00:21:22.432Z,4.80
2022-10-18T00:23:55.491Z,4.80
2022-10-18T00:26:29.364Z,4.50
2022-10-18T00:29:03.395Z,4.50
2022-10-18T00:31:36.961Z,4.50
2022-10-18T00:34:12.010Z,4.60
2022-10-18T00:36:45.331Z,6.30
2022-10-18T00:39:21.275Z,4.70
2022-10-18T00:41:53.653Z,4.70
2022-10-18T00:45:06.796Z,5.10
2022-10-18T00:47:38.630Z,4.60
2022-10-18T00:50:11.737Z,4.70
2022-10-18T00:52:48.053Z,4.40
2022-10-18T00:55:20.806Z,4.60
2022-10-18T01:00:30.297Z,5.10
2022-10-18T01:03:02.467Z,5.10
2022-10-18T01:05:38.721Z,5.10
2022-10-18T01:08:36.240Z,4.20
2022-10-18T01:11:19.676Z,4.70
2022-10-18T01:14:03.132Z,5.00
2022-10-18T01:16:40.675Z,4.20
2022-10-18T01:19:26.820Z,5.10
2022-10-18T01:22:03.981Z,4.50
2022-10-18T01:24:56.636Z,4.80
2022-10-18T01:27:37.274Z,4.50
2022-10-18T01:30:44.205Z,4.80
2022-10-18T01:33:22.971Z,4.60
2022-10-18T01:36:01.920Z,4.70
2022-10-18T01:38:37.052Z,4.50
2022-10-18T01:41:14.872Z,4.20
2022-10-18T01:43:51.448Z,4.30
2022-10-18T01:46:26.313Z,4.10
2022-10-18T01:48:59.356Z,4.50
2022-10-18T01:51:33.898Z,4.10
2022-10-18T01:54:06.520Z,4.80
2022-10-18T01:56:51.086Z,5.20
2022-10-18T01:59:39.196Z,4.70
2022-10-18T02:02:22.709Z,4.40
2022-10-18T02:05:03.279Z,4.40
2022-10-18T02:07:46.658Z,4.50
2022-10-18T02:10:31.345Z,5.00
2022-10-18T02:13:03.955Z,4.70
2022-10-18T02:15:40.195Z,4.70
2022-10-18T02:18:17.126Z,4.90
2022-10-18T02:20:49.948Z,4.80
2022-10-18T02:23:25.654Z,4.50
2022-10-18T02:25:58.017Z,4.60
2022-10-18T02:28:30.077Z,4.60
2022-10-18T02:33:43.924Z,4.40
2022-10-18T02:36:25.142Z,4.70
2022-10-18T02:39:01.534Z,4.50
2022-10-18T02:41:34.204Z,5.00
2022-10-18T02:44:06.176Z,4.70
2022-10-18T02:49:08.903Z,4.90
2022-10-18T02:51:40.767Z,4.50
2022-10-18T02:54:12.635Z,4.70
2022-10-18T02:56:44.499Z,5.10
2022-10-18T02:59:16.639Z,4.60
2022-10-18T03:01:48.590Z,4.40
2022-10-18T03:06:51.442Z,4.50
2022-10-18T03:11:53.709Z,4.30
2022-10-18T03:14:25.669Z,4.80
2022-10-18T03:16:57.751Z,4.70
2022-10-18T03:19:29.748Z,5.20
2022-10-18T03:24:32.087Z,4.70
2022-10-18T03:27:03.855Z,4.70
2022-10-18T03:29:35.738Z,4.80
2022-10-18T03:32:08.195Z,4.30
2022-10-18T03:34:40.585Z,4.90
2022-10-18T03:37:12.507Z,5.00
2022-10-18T03:39:44.444Z,5.40
2022-10-18T03:42:16.559Z,5.50
2022-10-18T03:47:18.697Z,5.30
2022-10-18T03:49:53.239Z,5.90
2022-10-18T03:52:33.155Z,5.70
2022-10-18T03:55:09.669Z,5.00
2022-10-18T03:57:41.584Z,5.00
2022-10-18T04:00:15.412Z,5.10
2022-10-18T04:02:50.702Z,5.00
2022-10-18T04:05:27.989Z,5.30
2022-10-18T04:08:00.561Z,4.40
2022-10-18T04:10:32.415Z,5.20
2022-10-18T04:13:04.287Z,5.30
2022-10-18T04:15:36.156Z,4.60
2022-10-18T04:20:39.819Z,5.10
2022-10-18T04:24:22.927Z,5.10
2022-10-18T04:29:25.851Z,5.20
2022-10-18T04:31:57.795Z,4.70
2022-10-18T04:34:29.714Z,4.60
2022-10-18T04:37:02.203Z,5.10
2022-10-18T04:39:34.158Z,4.60
2022-10-18T04:44:36.721Z,5.40
2022-10-18T04:47:08.816Z,5.10
2022-10-18T04:49:40.822Z,5.50
2022-10-18T04:52:12.741Z,5.20
2022-10-18T04:54:44.565Z,5.40
2022-10-18T04:57:16.727Z,5.50
2022-10-18T04:59:48.701Z,5.40
2022-10-18T05:02:20.812Z,4.90
2022-10-18T05:04:53.241Z,5.40
2022-10-18T05:07:25.181Z,5.50
2022-10-18T05:09:57.104Z,5.10
2022-10-18T05:12:29.601Z,5.30
2022-10-18T05:15:01.987Z,5.40
2022-10-18T05:17:34.179Z,5.50
2022-10-18T05:20:06.956Z,5.20
2022-10-18T05:22:39.103Z,5.40
2022-10-18T05:27:42.004Z,4.70
2022-10-18T05:30:14.688Z,5.40
2022-10-18T05:32:46.875Z,5.30
2022-10-18T05:37:49.697Z,5.40
2022-10-18T05:40:21.566Z,4.90
2022-10-18T05:47:56.903Z,5.00
2022-10-18T05:50:28.783Z,5.10
2022-10-18T05:53:11.922Z,5.40
2022-10-18T05:55:44.665Z,5.60
2022-10-18T05:58:16.745Z,6.00
2022-10-18T06:03:19.338Z,6.00
2022-10-18T06:05:52.660Z,6.00
2022-10-18T06:08:24.604Z,5.20
2022-10-18T06:10:56.966Z,5.90
2022-10-18T06:13:31.144Z,6.00
2022-10-18T06:16:05.920Z,6.00
2022-10-18T06:18:38.229Z,6.30
2022-10-18T06:21:11.045Z,6.10
2022-10-18T06:23:43.367Z,5.70
2022-10-18T06:26:15.294Z,5.60
2022-10-18T06:28:47.424Z,5.20
2022-10-18T06:31:21.312Z,5.50
2022-10-18T06:33:53.240Z,6.20
2022-10-18T06:38:57.656Z,5.60
2022-10-18T06:41:29.506Z,5.90
2022-10-18T06:44:13.747Z,5.90
2022-10-18T06:46:47.488Z,6.70
2022-10-18T06:49:19.515Z,6.10
2022-10-18T06:51:51.411Z,7.10
2022-10-18T06:56:56.583Z,6.90
2022-10-18T06:59:31.155Z,7.10
2022-10-18T07:02:03.533Z,6.80
2022-10-18T07:04:35.819Z,6.60
2022-10-18T07:07:08.060Z,7.20
2022-10-18T07:09:40.400Z,6.70
2022-10-18T07:12:12.382Z,6.70
2022-10-18T07:14:45.679Z,7.40
2022-10-18T07:17:17.813Z,7.80
2022-10-18T07:19:49.838Z,6.30
2022-10-18T07:24:52.158Z,6.40
2022-10-18T07:27:24.200Z,6.40
2022-10-18T07:29:56.042Z,5.70
2022-10-18T07:34:58.388Z,5.70
2022-10-18T07:37:30.683Z,6.10
2022-10-18T07:40:02.730Z,5.80
2022-10-18T07:42:35.501Z,6.10
2022-10-18T07:45:08.667Z,5.90
2022-10-18T07:47:41.232Z,6.00
2022-10-18T07:50:13.752Z,5.60
2022-10-18T07:52:46.106Z,5.30
2022-10-18T07:55:18.400Z,5.80
2022-10-18T07:57:50.505Z,5.90
2022-10-18T08:00:22.891Z,6.00
2022-10-18T08:02:58.342Z,6.20
2022-10-18T08:08:09.291Z,5.90
2022-10-18T08:10:41.375Z,7.20
2022-10-18T08:13:13.586Z,9.80
2022-10-18T08:15:45.715Z,6.10
2022-10-18T08:18:17.785Z,6.30
2022-10-18T08:20:49.885Z,8.40
2022-10-18T08:23:21.931Z,6.00
2022-10-18T08:25:53.783Z,6.70
2022-10-18T08:28:26.636Z,6.00
2022-10-18T08:30:58.752Z,7.80
2022-10-18T08:33:30.627Z,10.10
2022-10-18T08:36:05.823Z,7.30
2022-10-18T08:38:39.848Z,6.90
2022-10-18T08:41:31.001Z,7.80
2022-10-18T08:44:11.796Z,7.30
2022-10-18T08:46:48.767Z,10.30
2022-10-18T08:49:28.599Z,8.10
2022-10-18T08:52:00.912Z,7.10
2022-10-18T08:54:38.144Z,8.90
2022-10-18T08:57:18.117Z,8.30
2022-10-18T08:59:49.995Z,8.80
2022-10-18T09:02:34.967Z,8.40
2022-10-18T09:05:18.418Z,6.30
2022-10-18T09:08:10.330Z,6.40
2022-10-18T09:10:54.754Z,6.10
2022-10-18T09:13:57.761Z,6.20
2022-10-18T09:16:38.716Z,5.90
2022-10-18T09:19:23.222Z,5.90
2022-10-18T09:21:57.477Z,6.30
2022-10-18T09:24:37.053Z,6.50
2022-10-18T09:27:16.497Z,6.40
2022-10-18T09:29:59.864Z,5.90
2022-10-18T09:32:42.719Z,7.50
2022-10-18T09:35:19.382Z,7.50
2022-10-18T09:37:55.246Z,6.40
2022-10-18T09:40:30.234Z,6.80
2022-10-18T09:43:07.656Z,6.60
2022-10-18T09:45:44.107Z,6.90
2022-10-18T09:48:21.543Z,6.60
2022-10-18T09:50:59.343Z,7.60
2022-10-18T09:53:39.831Z,6.20
2022-10-18T09:56:16.330Z,6.70
2022-10-18T09:58:51.568Z,6.70
2022-10-18T10:01:25.646Z,6.60
2022-10-18T10:03:57.592Z,7.10
2022-10-18T10:06:31.343Z,7.40
2022-10-18T10:09:09.253Z,6.80
2022-10-18T10:11:46.384Z,6.80
2022-10-18T10:14:23.176Z,7.10
2022-10-18T10:16:57.930Z,6.50
2022-10-18T10:19:34.703Z,6.90
2022-10-18T10:22:10.946Z,6.50
2022-10-18T10:24:51.626Z,7.20
2022-10-18T10:27:30.089Z,6.80
2022-10-18T10:30:07.133Z,8.30
2022-10-18T10:32:50.309Z,7.40
2022-10-18T10:35:41.522Z,6.80
2022-10-18T10:38:28.170Z,6.80
2022-10-18T10:41:00.746Z,7.80
2022-10-18T10:43:40.051Z,7.30
2022-10-18T10:46:15.045Z,7.10
2022-10-18T10:49:00.618Z,6.90
2022-10-18T10:51:50.583Z,7.10
2022-10-18T10:54:35.449Z,6.60
2022-10-18T10:57:18.097Z,7.30
2022-10-18T10:59:52.033Z,6.80
2022-10-18T11:02:30.800Z,7.10
2022-10-18T11:05:23.384Z,7.00
2022-10-18T11:07:57.870Z,6.60
2022-10-18T11:10:35.605Z,6.30
2022-10-18T11:13:23.334Z,6.90
2022-10-18T11:16:01.946Z,7.60
2022-10-18T11:18:38.327Z,7.40
2022-10-18T11:21:15.970Z,6.80
2022-10-18T11:23:48.052Z,7.10
2022-10-18T11:26:46.216Z,7.90
2022-10-18T11:29:38.045Z,8.00
2022-10-18T11:32:19.012Z,7.50
2022-10-18T11:35:05.063Z,7.20
2022-10-18T11:37:50.646Z,7.30
2022-10-18T11:40:45.813Z,6.90
2022-10-18T11:43:30.283Z,7.00
2022-10-18T11:46:21.912Z,7.00
2022-10-18T11:49:06.990Z,6.70
2022-10-18T11:52:07.861Z,7.10
2022-10-18T11:55:04.812Z,7.20
2022-10-18T11:57:44.871Z,6.70
2022-10-18T12:00:39.493Z,6.80
2022-10-18T12:03:23.626Z,7.40
2022-10-18T12:05:58.265Z,7.30
2022-10-18T12:08:35.432Z,7.70
2022-10-18T12:11:15.507Z,7.40
2022-10-18T12:13:52.300Z,6.80
2022-10-18T12:16:45.906Z,7.00
2022-10-18T12:19:26.292Z,8.90
2022-10-18T12:22:18.333Z,6.80
2022-10-18T12:24:50.241Z,8.90
2022-10-18T12:27:34.761Z,7.40
2022-10-18T12:30:15.532Z,6.70
2022-10-18T12:33:03.425Z,7.60
2022-10-18T12:35:56.817Z,8.00
2022-10-18T12:38:32.847Z,7.70
2022-10-18T12:41:06.631Z,7.90
2022-10-18T12:43:38.484Z,7.20
2022-10-18T12:46:13.791Z,7.60
2022-10-18T12:48:51.375Z,7.50
2022-10-18T12:51:24.463Z,7.20
2022-10-18T12:54:10.622Z,8.00
2022-10-18T12:56:46.803Z,7.20
2022-10-18T12:59:43.886Z,7.00
2022-10-18T13:02:31.068Z,7.00
2022-10-18T13:05:40.953Z,7.50
2022-10-18T13:11:38.418Z,7.40
2022-10-18T13:14:31.936Z,6.90
2022-10-18T13:17:13.590Z,7.30
2022-10-18T13:20:20.516Z,7.80
2022-10-18T13:23:11.537Z,7.00
2022-10-18T13:25:55.486Z,7.70
2022-10-18T13:28:36.595Z,7.70
2022-10-18T13:31:19.176Z,7.10
2022-10-18T13:33:51.338Z,7.70
2022-10-18T13:36:26.549Z,8.20
2022-10-18T13:39:20.073Z,8.60
2022-10-18T13:42:29.570Z,8.20
2022-10-18T13:45:32.422Z,10.20
2022-10-18T13:48:35.063Z,8.70
2022-10-18T13:51:22.379Z,9.80
2022-10-18T13:54:02.196Z,8.40
2022-10-18T13:56:47.207Z,8.30
2022-10-18T13:59:41.724Z,8.30
2022-10-18T14:02:50.665Z,8.20
2022-10-18T14:05:42.918Z,8.30
2022-10-18T14:08:18.546Z,8.20
2022-10-18T14:11:02.481Z,9.30
2022-10-18T14:13:44.044Z,10.50
2022-10-18T14:16:33.101Z,9.50
2022-10-18T14:19:17.405Z,9.10
2022-10-18T14:21:55.483Z,10.00
2022-10-18T14:24:30.150Z,9.10
2022-10-18T14:27:19.940Z,9.10
2022-10-18T14:30:08.018Z,10.50
2022-10-18T14:32:43.700Z,10.40
2022-10-18T14:35:33.650Z,10.70
2022-10-18T14:38:07.250Z,10.30
2022-10-18T14:40:41.133Z,10.40
2022-10-18T14:43:16.643Z,10.50
2022-10-18T14:45:51.137Z,10.50
2022-10-18T14:48:25.566Z,10.00
2022-10-18T14:51:00.640Z,9.80
2022-10-18T14:53:38.487Z,10.70
2022-10-18T14:56:21.507Z,9.70
2022-10-18T14:58:54.683Z,10.50
2022-10-18T15:01:30.559Z,9.40
2022-10-18T15:04:06.927Z,9.30
2022-10-18T15:06:43.408Z,9.60
2022-10-18T15:09:21.712Z,9.70
2022-10-18T15:11:57.886Z,10.40
2022-10-18T15:14:30.852Z,10.60
2022-10-18T15:17:08.939Z,9.40
2022-10-18T15:19:42.899Z,10.90
2022-10-18T15:22:31.626Z,10.80
2022-10-18T15:25:15.600Z,12.30
2022-10-18T15:27:50.387Z,13.50
2022-10-18T15:30:27.897Z,19.60
2022-10-18T15:33:02.039Z,30.50
2022-10-18T15:35:36.077Z,17.30
2022-10-18T15:38:18.613Z,10.90
2022-10-18T15:40:51.030Z,9.00
2022-10-18T15:43:39.223Z,10.10
2022-10-18T15:46:32.714Z,12.80
2022-10-18T15:49:52.274Z,12.90
2022-10-18T15:52:39.533Z,16.30
2022-10-18T15:55:47.591Z,16.60
2022-10-18T15:58:25.083Z,14.70
2022-10-18T16:01:00.096Z,13.00
2022-10-18T16:03:36.143Z,10.00
2022-10-18T16:06:12.295Z,9.30
2022-10-18T16:08:49.430Z,9.00
2022-10-18T16:11:23.167Z,9.60
2022-10-18T16:13:58.003Z,10.80
2022-10-18T16:16:32.477Z,10.90
2022-10-18T16:21:38.066Z,11.30
2022-10-18T16:24:10.864Z,11.50
2022-10-18T16:26:42.792Z,12.10
2022-10-18T16:29:16.790Z,10.00
2022-10-18T16:31:50.955Z,9.70
2022-10-18T16:34:23.368Z,9.10
2022-10-18T16:36:56.268Z,8.60
2022-10-18T16:39:29.262Z,8.30
2022-10-18T16:42:01.282Z,7.80
2022-10-18T16:44:33.347Z,9.20
2022-10-18T16:49:36.252Z,7.60
2022-10-18T16:52:08.294Z,9.30
2022-10-18T16:57:13.587Z,11.30
2022-10-18T16:59:52.423Z,10.60
2022-10-18T17:02:27.043Z,9.90
2022-10-18T17:04:59.275Z,11.00
2022-10-18T17:07:33.925Z,11.10
2022-10-18T17:10:06.888Z,11.40
2022-10-18T17:12:38.913Z,10.90
2022-10-18T17:17:46.187Z,12.00
2022-10-18T17:20:24.011Z,7.60
2022-10-18T17:22:56.559Z,4.00
2022-10-18T17:28:06.193Z,3.10
2022-10-18T17:30:39.051Z,3.30
2022-10-18T17:33:11.629Z,2.60
2022-10-18T17:35:44.395Z,2.20
2022-10-18T17:38:16.502Z,2.30
2022-10-18T17:40:49.040Z,2.70
2022-10-18T17:43:21.234Z,2.20
2022-10-18T17:45:57.273Z,2.10
2022-10-18T17:48:29.428Z,1.80
2022-10-18T17:51:01.459Z,2.70
2022-10-18T17:53:35.037Z,2.00
2022-10-18T17:56:09.072Z,2.10
2022-10-18T17:58:43.561Z,2.00
2022-10-18T18:01:18.549Z,2.10
2022-10-18T18:03:51.163Z,2.00
2022-10-18T18:06:31.659Z,2.60
2022-10-18T18:09:07.481Z,1.60
2022-10-18T18:11:44.881Z,1.40
2022-10-18T18:14:24.762Z,1.30
2022-10-18T18:17:01.510Z,1.40
2022-10-18T18:19:35.626Z,1.40
2022-10-18T18:22:08.919Z,1.10
2022-10-18T18:24:42.836Z,1.70
2022-10-18T18:27:16.316Z,1.90
2022-10-18T18:29:59.735Z,1.50
2022-10-18T18:32:49.181Z,0.90
2022-10-18T18:35:31.947Z,1.20
2022-10-18T18:38:15.802Z,1.60
2022-10-18T18:41:11.455Z,2.40
2022-10-18T18:44:57.185Z,2.50
2022-10-18T18:47:37.180Z,2.90
2022-10-18T18:50:14.465Z,2.90
2022-10-18T18:52:47.365Z,2.80
2022-10-18T18:55:21.659Z,2.70
2022-10-18T18:57:53.926Z,3.80
2022-10-18T19:00:26.104Z,2.90
2022-10-18T19:02:58.106Z,2.40
2022-10-18T19:08:06.246Z,2.40
2022-10-18T19:10:38.401Z,2.80
2022-10-18T19:13:10.320Z,2.40
2022-10-18T19:15:43.378Z,2.30
2022-10-18T19:18:23.175Z,3.20
2022-10-18T19:21:02.394Z,5.90
2022-10-18T19:23:34.950Z,5.80
2022-10-18T19:28:44.485Z,2.90
2022-10-18T19:31:16.999Z,2.10
2022-10-18T19:33:59.406Z,2.30
2022-10-18T19:36:32.333Z,2.40
2022-10-18T19:39:07.699Z,2.30
2022-10-18T19:41:40.083Z,2.90
2022-10-18T19:44:11.989Z,2.40
2022-10-18T19:46:44.282Z,3.40
2022-10-18T19:49:16.861Z,3.00
2022-10-18T19:51:48.947Z,3.30
2022-10-18T19:54:20.876Z,3.00
2022-10-18T19:59:26.373Z,3.30
2022-10-18T20:02:00.541Z,3.70
2022-10-18T20:04:34.947Z,4.40
2022-10-18T20:07:06.919Z,5.70
2022-10-18T20:12:09.296Z,6.70
2022-10-18T20:17:12.987Z,6.60
2022-10-18T20:19:45.128Z,6.80
2022-10-18T20:22:17.144Z,6.10
2022-10-18T20:27:19.669Z,5.80
2022-10-18T20:29:51.742Z,6.40
2022-10-18T20:34:53.888Z,8.70
2022-10-18T20:37:25.736Z,7.80
2022-10-18T20:39:57.663Z,7.00
2022-10-18T20:42:29.550Z,7.50
2022-10-18T20:45:01.458Z,8.90
2022-10-18T20:47:53.435Z,7.30
2022-10-18T20:50:25.299Z,7.00
2022-10-18T20:52:57.512Z,6.70
2022-10-18T20:55:31.256Z,7.20
2022-10-18T20:58:03.665Z,8.20
2022-10-18T21:00:36.154Z,9.50
2022-10-18T21:03:08.191Z,8.50
2022-10-18T21:08:10.358Z,8.10
2022-10-18T21:10:42.196Z,7.70
2022-10-18T21:13:14.055Z,7.70
2022-10-18T21:15:54.279Z,7.70
2022-10-18T21:18:28.000Z,7.90
2022-10-18T21:21:10.241Z,8.40
2022-10-18T21:23:42.422Z,8.10
2022-10-18T21:26:17.714Z,7.60
2022-10-18T21:28:50.709Z,7.90
2022-10-18T21:31:23.941Z,7.60
2022-10-18T21:33:57.927Z,8.30
2022-10-18T21:36:31.826Z,7.90
2022-10-18T21:39:04.863Z,8.20
2022-10-18T21:41:37.840Z,8.10
2022-10-18T21:44:10.822Z,7.90
2022-10-18T21:46:44.103Z,8.80
2022-10-18T21:49:16.654Z,9.40
2022-10-18T21:51:48.552Z,8.50
2022-10-18T21:54:20.591Z,8.40
2022-10-18T21:56:52.750Z,9.00
2022-10-18T22:01:56.407Z,9.20
2022-10-18T22:04:28.281Z,9.30
2022-10-18T22:09:31.759Z,9.30
2022-10-18T22:14:35.184Z,9.50
2022-10-18T22:17:07.013Z,9.30
2022-10-18T22:19:38.871Z,10.30
2022-10-18T22:22:10.898Z,11.20
2022-10-18T22:27:13.129Z,9.90
2022-10-18T22:29:45.026Z,10.30
2022-10-18T22:34:47.550Z,10.20
2022-10-18T22:39:49.835Z,9.50
2022-10-18T22:44:52.203Z,11.00
2022-10-18T22:47:24.295Z,10.50
2022-10-18T22:49:56.339Z,11.20
2022-10-18T22:52:28.394Z,10.70
2022-10-18T22:55:00.276Z,11.00
2022-10-18T22:57:32.876Z,11.40
2022-10-18T23:00:05.577Z,11.90
2022-10-18T23:02:37.879Z,11.50
2022-10-18T23:05:11.399Z,10.10
2022-10-18T23:07:43.189Z,11.30
2022-10-18T23:10:15.133Z,11.60
2022-10-18T23:15:17.861Z,11.40
2022-10-18T23:17:50.119Z,10.90
2022-10-18T23:20:22.090Z,10.50
2022-10-18T23:25:24.337Z,11.10
2022-10-18T23:27:56.370Z,9.50
2022-10-18T23:32:58.690Z,11.60
2022-10-18T23:38:01.775Z,9.80
2022-10-18T23:40:33.682Z,9.00
2022-10-18T23:43:05.662Z,9.20
2022-10-18T23:48:08.590Z,9.80
2022-10-18T23:50:40.418Z,8.60
2022-10-18T23:53:12.438Z,8.50
2022-10-18T23:58:21.558Z,8.70
